sensor_id;sensor_type;location;lat;lon;timestamp;pressure;altitude;pressure_sealevel;temperature;humidity
32251;BME280;41295;48.518;9.206;2023-05-19T00:00:31;97639.22;;;13.47;57.92
32251;BME280;41295;48.518;9.206;2023-05-19T00:02:35;97630.59;;;13.45;57.93
32251;BME280;41295;48.518;9.206;2023-05-19T00:04:58;97634.03;;;13.45;57.97
32251;BME280;41295;48.518;9.206;2023-05-19T00:07:02;97635.81;;;13.45;57.86
32251;BME280;41295;48.518;9.206;2023-05-19T00:09:07;97636.72;;;13.44;58.09
32251;BME280;41295;48.518;9.206;2023-05-19T00:11:10;97635.91;;;13.43;57.98
32251;BME280;41295;48.518;9.206;2023-05-19T00:13:14;97635.03;;;13.43;57.96
32251;BME280;41295;48.518;9.206;2023-05-19T00:15:19;97638.56;;;13.42;58.02
32251;BME280;41295;48.518;9.206;2023-05-19T00:17:25;97639.41;;;13.42;57.82
32251;BME280;41295;48.518;9.206;2023-05-19T00:19:28;97633.38;;;13.40;58.15
32251;BME280;41295;48.518;9.206;2023-05-19T00:21:32;97633.47;;;13.39;58.00
32251;BME280;41295;48.518;9.206;2023-05-19T00:23:35;97626.47;;;13.39;58.17
32251;BME280;41295;48.518;9.206;2023-05-19T00:25:38;97636.06;;;13.39;58.26
32251;BME280;41295;48.518;9.206;2023-05-19T00:27:41;97634.38;;;13.38;58.40
32251;BME280;41295;48.518;9.206;2023-05-19T00:29:44;97629.16;;;13.38;58.35
32251;BME280;41295;48.518;9.206;2023-05-19T00:31:46;97625.75;;;13.35;58.34
32251;BME280;41295;48.518;9.206;2023-05-19T00:33:50;97628.44;;;13.34;58.68
32251;BME280;41295;48.518;9.206;2023-05-19T00:35:53;97621.44;;;13.34;58.94
32251;BME280;41295;48.518;9.206;2023-05-19T00:38:06;97619.72;;;13.33;59.03
32251;BME280;41295;48.518;9.206;2023-05-19T00:40:09;97612.84;;;13.31;59.37
32251;BME280;41295;48.518;9.206;2023-05-19T00:42:16;97614.53;;;13.32;59.15
32251;BME280;41295;48.518;9.206;2023-05-19T00:44:19;97613.75;;;13.30;59.18
32251;BME280;41295;48.518;9.206;2023-05-19T00:46:22;97617.25;;;13.30;59.51
32251;BME280;41295;48.518;9.206;2023-05-19T00:48:25;97625.16;;;13.29;59.61
32251;BME280;41295;48.518;9.206;2023-05-19T00:50:30;97626.84;;;13.30;59.61
32251;BME280;41295;48.518;9.206;2023-05-19T00:52:34;97620.00;;;13.27;59.62
32251;BME280;41295;48.518;9.206;2023-05-19T00:54:37;97619.19;;;13.25;59.63
32251;BME280;41295;48.518;9.206;2023-05-19T00:56:41;97606.03;;;13.27;59.58
32251;BME280;41295;48.518;9.206;2023-05-19T00:58:50;97602.63;;;13.25;59.70
32251;BME280;41295;48.518;9.206;2023-05-19T01:00:56;97605.31;;;13.23;60.34
32251;BME280;41295;48.518;9.206;2023-05-19T01:03:05;97604.53;;;13.21;60.56
32251;BME280;41295;48.518;9.206;2023-05-19T01:05:22;97605.38;;;13.21;60.48
32251;BME280;41295;48.518;9.206;2023-05-19T01:07:27;97606.28;;;13.20;60.10
32251;BME280;41295;48.518;9.206;2023-05-19T01:09:29;97599.38;;;13.19;60.13
32251;BME280;41295;48.518;9.206;2023-05-19T01:11:32;97594.19;;;13.18;59.76
32251;BME280;41295;48.518;9.206;2023-05-19T01:13:40;97597.69;;;13.18;59.61
32251;BME280;41295;48.518;9.206;2023-05-19T01:15:55;97595.88;;;13.19;59.66
32251;BME280;41295;48.518;9.206;2023-05-19T01:18:07;97595.06;;;13.18;59.47
32251;BME280;41295;48.518;9.206;2023-05-19T01:20:26;97591.59;;;13.18;59.22
32251;BME280;41295;48.518;9.206;2023-05-19T01:22:59;97594.19;;;13.18;58.95
32251;BME280;41295;48.518;9.206;2023-05-19T01:25:32;97598.56;;;13.17;58.65
32251;BME280;41295;48.518;9.206;2023-05-19T01:28:11;97608.97;;;13.19;58.88
32251;BME280;41295;48.518;9.206;2023-05-19T01:30:26;97603.81;;;13.17;58.68
32251;BME280;41295;48.518;9.206;2023-05-19T01:32:32;97604.69;;;13.18;58.47
32251;BME280;41295;48.518;9.206;2023-05-19T01:34:40;97600.41;;;13.15;58.23
32251;BME280;41295;48.518;9.206;2023-05-19T01:36:44;97609.13;;;13.16;58.35
32251;BME280;41295;48.518;9.206;2023-05-19T01:38:50;97613.47;;;13.17;58.36
32251;BME280;41295;48.518;9.206;2023-05-19T01:40:54;97610.84;;;13.17;58.26
32251;BME280;41295;48.518;9.206;2023-05-19T01:43:17;97615.16;;;13.18;58.49
32251;BME280;41295;48.518;9.206;2023-05-19T01:45:23;97614.22;;;13.19;58.50
32251;BME280;41295;48.518;9.206;2023-05-19T01:47:26;97622.13;;;13.17;58.49
32251;BME280;41295;48.518;9.206;2023-05-19T01:49:29;97610.84;;;13.17;58.57
32251;BME280;41295;48.518;9.206;2023-05-19T01:51:32;97610.84;;;13.17;58.52
32251;BME280;41295;48.518;9.206;2023-05-19T01:53:37;97603.03;;;13.15;58.52
32251;BME280;41295;48.518;9.206;2023-05-19T01:55:43;97600.41;;;13.15;58.64
32251;BME280;41295;48.518;9.206;2023-05-19T01:57:59;97596.97;;;13.15;58.35
32251;BME280;41295;48.518;9.206;2023-05-19T02:00:15;97601.47;;;13.11;58.25
32251;BME280;41295;48.518;9.206;2023-05-19T02:02:27;97596.25;;;13.11;58.58
32251;BME280;41295;48.518;9.206;2023-05-19T02:04:42;97604.09;;;13.11;58.54
32251;BME280;41295;48.518;9.206;2023-05-19T02:06:54;97598.84;;;13.11;58.81
32251;BME280;41295;48.518;9.206;2023-05-19T02:09:01;97596.25;;;13.11;58.92
32251;BME280;41295;48.518;9.206;2023-05-19T02:11:08;97594.44;;;13.11;58.91
32251;BME280;41295;48.518;9.206;2023-05-19T02:13:17;97599.75;;;13.10;59.02
32251;BME280;41295;48.518;9.206;2023-05-19T02:15:24;97596.31;;;13.09;58.86
32251;BME280;41295;48.518;9.206;2023-05-19T02:17:31;97588.44;;;13.09;59.02
32251;BME280;41295;48.518;9.206;2023-05-19T02:19:37;97597.13;;;13.10;58.92
32251;BME280;41295;48.518;9.206;2023-05-19T02:21:40;97592.09;;;13.05;58.78
32251;BME280;41295;48.518;9.206;2023-05-19T02:23:44;97596.56;;;13.03;58.77
32251;BME280;41295;48.518;9.206;2023-05-19T02:25:47;97589.56;;;13.04;58.46
32251;BME280;41295;48.518;9.206;2023-05-19T02:27:51;97590.53;;;13.01;58.17
32251;BME280;41295;48.518;9.206;2023-05-19T02:30:09;97586.09;;;13.03;58.25
32251;BME280;41295;48.518;9.206;2023-05-19T02:32:24;97592.19;;;13.04;58.06
32251;BME280;41295;48.518;9.206;2023-05-19T02:34:34;97593.88;;;13.05;57.91
32251;BME280;41295;48.518;9.206;2023-05-19T02:36:39;97593.88;;;13.05;58.03
32251;BME280;41295;48.518;9.206;2023-05-19T02:38:43;97592.31;;;13.01;57.74
32251;BME280;41295;48.518;9.206;2023-05-19T02:40:51;97588.13;;;12.96;57.63
32251;BME280;41295;48.518;9.206;2023-05-19T02:42:59;97588.56;;;12.85;57.60
32251;BME280;41295;48.518;9.206;2023-05-19T02:45:08;97585.81;;;12.89;57.95
32251;BME280;41295;48.518;9.206;2023-05-19T02:47:11;97580.38;;;12.72;58.04
32251;BME280;41295;48.518;9.206;2023-05-19T02:49:13;97581.09;;;12.76;58.02
32251;BME280;41295;48.518;9.206;2023-05-19T02:51:18;97587.06;;;12.80;57.91
32251;BME280;41295;48.518;9.206;2023-05-19T02:53:22;97586.91;;;12.83;58.06
32251;BME280;41295;48.518;9.206;2023-05-19T02:55:25;97586.81;;;12.86;57.96
32251;BME280;41295;48.518;9.206;2023-05-19T02:57:28;97587.63;;;12.86;58.10
32251;BME280;41295;48.518;9.206;2023-05-19T02:59:32;97585.81;;;12.89;58.05
32251;BME280;41295;48.518;9.206;2023-05-19T03:01:35;97584.91;;;12.90;58.11
32251;BME280;41295;48.518;9.206;2023-05-19T03:03:51;97589.22;;;12.91;57.88
32251;BME280;41295;48.518;9.206;2023-05-19T03:05:57;97582.28;;;12.90;57.69
32251;BME280;41295;48.518;9.206;2023-05-19T03:08:03;97587.47;;;12.91;57.79
32251;BME280;41295;48.518;9.206;2023-05-19T03:10:07;97585.72;;;12.92;57.88
32251;BME280;41295;48.518;9.206;2023-05-19T03:12:10;97572.63;;;12.92;57.70
32251;BME280;41295;48.518;9.206;2023-05-19T03:14:18;97584.72;;;12.94;57.71
32251;BME280;41295;48.518;9.206;2023-05-19T03:16:24;97584.78;;;12.93;57.68
32251;BME280;41295;48.518;9.206;2023-05-19T03:18:28;97584.72;;;12.94;57.74
32251;BME280;41295;48.518;9.206;2023-05-19T03:20:31;97585.56;;;12.95;57.55
32251;BME280;41295;48.518;9.206;2023-05-19T03:22:47;97584.72;;;12.94;57.74
32251;BME280;41295;48.518;9.206;2023-05-19T03:24:52;97579.47;;;12.94;57.68
32251;BME280;41295;48.518;9.206;2023-05-19T03:26:55;97582.16;;;12.93;57.90
32251;BME280;41295;48.518;9.206;2023-05-19T03:28:57;97582.09;;;12.94;58.10
32251;BME280;41295;48.518;9.206;2023-05-19T03:31:00;97580.47;;;12.92;58.48
32251;BME280;41295;48.518;9.206;2023-05-19T03:33:03;97584.72;;;12.94;58.72
32251;BME280;41295;48.518;9.206;2023-05-19T03:35:07;97585.63;;;12.93;58.78
32251;BME280;41295;48.518;9.206;2023-05-19T03:37:10;97588.31;;;12.92;58.92
32251;BME280;41295;48.518;9.206;2023-05-19T03:39:13;97588.38;;;12.90;59.12
32251;BME280;41295;48.518;9.206;2023-05-19T03:41:20;97584.06;;;12.89;59.24
32251;BME280;41295;48.518;9.206;2023-05-19T03:43:23;97585.81;;;12.89;59.45
32251;BME280;41295;48.518;9.206;2023-05-19T03:45:25;97584.13;;;12.87;59.79
32251;BME280;41295;48.518;9.206;2023-05-19T03:47:31;97594.59;;;12.87;59.99
32251;BME280;41295;48.518;9.206;2023-05-19T03:49:48;97589.34;;;12.87;59.99
32251;BME280;41295;48.518;9.206;2023-05-19T03:51:51;97590.22;;;12.88;60.16
32251;BME280;41295;48.518;9.206;2023-05-19T03:53:53;97590.25;;;12.86;60.45
32251;BME280;41295;48.518;9.206;2023-05-19T03:55:56;97592.03;;;12.86;60.39
32251;BME280;41295;48.518;9.206;2023-05-19T03:58:03;97592.94;;;12.85;60.55
32251;BME280;41295;48.518;9.206;2023-05-19T04:00:07;97592.16;;;12.83;60.54
32251;BME280;41295;48.518;9.206;2023-05-19T04:02:11;97586.09;;;12.82;60.67
32251;BME280;41295;48.518;9.206;2023-05-19T04:04:14;97587.84;;;12.82;60.60
32251;BME280;41295;48.518;9.206;2023-05-19T04:06:18;97594.00;;;12.81;60.76
32251;BME280;41295;48.518;9.206;2023-05-19T04:08:21;97587.97;;;12.79;60.98
32251;BME280;41295;48.518;9.206;2023-05-19T04:10:24;97591.50;;;12.78;60.89
32251;BME280;41295;48.518;9.206;2023-05-19T04:12:28;97594.09;;;12.78;60.95
32251;BME280;41295;48.518;9.206;2023-05-19T04:14:35;97591.50;;;12.78;61.09
32251;BME280;41295;48.518;9.206;2023-05-19T04:16:52;97592.41;;;12.77;61.12
32251;BME280;41295;48.518;9.206;2023-05-19T04:18:55;97585.53;;;12.74;60.87
32251;BME280;41295;48.518;9.206;2023-05-19T04:20:58;97598.69;;;12.72;60.99
32251;BME280;41295;48.518;9.206;2023-05-19T04:23:21;97599.53;;;12.73;61.13
32251;BME280;41295;48.518;9.206;2023-05-19T04:25:33;97591.69;;;12.73;61.28
32251;BME280;41295;48.518;9.206;2023-05-19T04:27:38;97590.00;;;12.72;61.03
32251;BME280;41295;48.518;9.206;2023-05-19T04:29:45;97591.81;;;12.70;61.42
32251;BME280;41295;48.518;9.206;2023-05-19T04:31:48;97592.66;;;12.70;61.52
32251;BME280;41295;48.518;9.206;2023-05-19T04:33:52;97604.06;;;12.69;61.60
32251;BME280;41295;48.518;9.206;2023-05-19T04:35:55;97600.50;;;12.70;61.42
32251;BME280;41295;48.518;9.206;2023-05-19T04:37:59;97594.44;;;12.70;61.27
32251;BME280;41295;48.518;9.206;2023-05-19T04:40:05;97585.72;;;12.69;61.14
32251;BME280;41295;48.518;9.206;2023-05-19T04:42:27;97583.06;;;12.71;61.16
32251;BME280;41295;48.518;9.206;2023-05-19T04:44:47;97593.53;;;12.71;61.13
32251;BME280;41295;48.518;9.206;2023-05-19T04:46:52;97596.06;;;12.72;61.24
32251;BME280;41295;48.518;9.206;2023-05-19T04:48:55;97594.31;;;12.73;61.25
32251;BME280;41295;48.518;9.206;2023-05-19T04:51:04;97596.94;;;12.73;61.56
32251;BME280;41295;48.518;9.206;2023-05-19T04:53:08;97596.06;;;12.72;61.59
32251;BME280;41295;48.518;9.206;2023-05-19T04:55:11;97600.41;;;12.73;61.66
32251;BME280;41295;48.518;9.206;2023-05-19T04:57:14;97596.06;;;12.72;61.91
32251;BME280;41295;48.518;9.206;2023-05-19T04:59:33;97597.78;;;12.73;61.94
32251;BME280;41295;48.518;9.206;2023-05-19T05:01:37;97588.16;;;12.74;61.70
32251;BME280;41295;48.518;9.206;2023-05-19T05:03:41;97587.25;;;12.75;61.50
32251;BME280;41295;48.518;9.206;2023-05-19T05:05:44;97579.41;;;12.75;61.77
32251;BME280;41295;48.518;9.206;2023-05-19T05:07:59;97578.47;;;12.76;61.83
32251;BME280;41295;48.518;9.206;2023-05-19T05:10:19;97588.03;;;12.77;61.82
32251;BME280;41295;48.518;9.206;2023-05-19T05:12:25;97587.97;;;12.79;61.84
32251;BME280;41295;48.518;9.206;2023-05-19T05:14:33;97594.91;;;12.80;61.79
32251;BME280;41295;48.518;9.206;2023-05-19T05:17:15;97590.59;;;12.79;61.87
32251;BME280;41295;48.518;9.206;2023-05-19T05:19:19;97592.28;;;12.80;62.15
32251;BME280;41295;48.518;9.206;2023-05-19T05:21:23;97594.00;;;12.81;62.09
32251;BME280;41295;48.518;9.206;2023-05-19T05:23:45;97590.47;;;12.82;62.07
32251;BME280;41295;48.518;9.206;2023-05-19T05:25:50;97587.91;;;12.80;62.21
32251;BME280;41295;48.518;9.206;2023-05-19T05:27:54;97592.16;;;12.83;61.90
32251;BME280;41295;48.518;9.206;2023-05-19T05:30:07;97592.16;;;12.83;61.79
32251;BME280;41295;48.518;9.206;2023-05-19T05:32:43;97593.72;;;12.87;62.01
32251;BME280;41295;48.518;9.206;2023-05-19T05:34:56;97592.88;;;12.86;62.11
32251;BME280;41295;48.518;9.206;2023-05-19T05:36:59;97592.88;;;12.86;61.87
32251;BME280;41295;48.518;9.206;2023-05-19T05:39:04;97591.97;;;12.87;61.66
32251;BME280;41295;48.518;9.206;2023-05-19T05:41:07;97592.84;;;12.88;61.66
32251;BME280;41295;48.518;9.206;2023-05-19T05:43:14;97587.53;;;12.90;61.68
32251;BME280;41295;48.518;9.206;2023-05-19T05:45:17;97591.91;;;12.89;61.67
32251;BME280;41295;48.518;9.206;2023-05-19T05:47:20;97595.38;;;12.90;61.54
32251;BME280;41295;48.518;9.206;2023-05-19T05:49:28;97592.69;;;12.91;61.50
32251;BME280;41295;48.518;9.206;2023-05-19T05:51:45;97596.19;;;12.92;61.46
32251;BME280;41295;48.518;9.206;2023-05-19T05:54:06;97603.88;;;12.95;61.57
32251;BME280;41295;48.518;9.206;2023-05-19T05:56:13;97604.72;;;12.95;61.60
32251;BME280;41295;48.518;9.206;2023-05-19T05:58:16;97604.69;;;12.97;61.55
32251;BME280;41295;48.518;9.206;2023-05-19T06:00:20;97601.13;;;12.98;61.19
32251;BME280;41295;48.518;9.206;2023-05-19T06:02:23;97597.66;;;12.97;60.93
32251;BME280;41295;48.518;9.206;2023-05-19T06:04:33;97602.00;;;12.98;61.04
32251;BME280;41295;48.518;9.206;2023-05-19T06:06:36;97608.03;;;13.01;61.10
32251;BME280;41295;48.518;9.206;2023-05-19T06:08:40;97605.41;;;13.01;61.27
32251;BME280;41295;48.518;9.206;2023-05-19T06:10:43;97591.38;;;13.02;61.38
32251;BME280;41295;48.518;9.206;2023-05-19T06:12:48;97594.78;;;13.04;61.26
32251;BME280;41295;48.518;9.206;2023-05-19T06:14:51;97602.56;;;13.05;61.78
32251;BME280;41295;48.518;9.206;2023-05-19T06:16:56;97603.31;;;13.09;61.74
32251;BME280;41295;48.518;9.206;2023-05-19T06:19:18;97598.13;;;13.07;61.86
32251;BME280;41295;48.518;9.206;2023-05-19T06:21:36;97597.28;;;13.07;61.91
32251;BME280;41295;48.518;9.206;2023-05-19T06:23:40;97603.31;;;13.09;62.08
32251;BME280;41295;48.518;9.206;2023-05-19T06:25:49;97598.84;;;13.11;61.92
32251;BME280;41295;48.518;9.206;2023-05-19T06:27:51;97594.41;;;13.13;62.02
32251;BME280;41295;48.518;9.206;2023-05-19T06:29:54;97589.09;;;13.15;61.90
32251;BME280;41295;48.518;9.206;2023-05-19T06:32:19;97595.06;;;13.18;61.93
32251;BME280;41295;48.518;9.206;2023-05-19T06:34:23;97591.44;;;13.21;61.57
32251;BME280;41295;48.518;9.206;2023-05-19T06:36:30;97585.22;;;13.23;61.70
32251;BME280;41295;48.518;9.206;2023-05-19T06:38:36;97592.94;;;13.27;61.66
32251;BME280;41295;48.518;9.206;2023-05-19T06:40:39;97591.19;;;13.27;61.57
32251;BME280;41295;48.518;9.206;2023-05-19T06:42:42;97591.91;;;13.31;61.81
32251;BME280;41295;48.518;9.206;2023-05-19T06:44:44;97595.28;;;13.33;62.20
32251;BME280;41295;48.518;9.206;2023-05-19T06:46:47;97594.31;;;13.35;62.13
32251;BME280;41295;48.518;9.206;2023-05-19T06:48:50;97588.22;;;13.35;61.86
32251;BME280;41295;48.518;9.206;2023-05-19T06:50:52;97594.16;;;13.39;61.85
32251;BME280;41295;48.518;9.206;2023-05-19T06:52:55;97595.97;;;13.38;61.88
32251;BME280;41295;48.518;9.206;2023-05-19T06:55:00;97595.75;;;13.43;61.79
32251;BME280;41295;48.518;9.206;2023-05-19T06:57:02;97597.44;;;13.44;60.95
32251;BME280;41295;48.518;9.206;2023-05-19T06:59:05;97599.16;;;13.45;60.89
32251;BME280;41295;48.518;9.206;2023-05-19T07:01:08;97597.38;;;13.45;59.88
32251;BME280;41295;48.518;9.206;2023-05-19T07:03:10;97599.00;;;13.48;60.01
32251;BME280;41295;48.518;9.206;2023-05-19T07:05:13;97592.91;;;13.47;59.72
32251;BME280;41295;48.518;9.206;2023-05-19T07:07:16;97593.63;;;13.51;59.97
32251;BME280;41295;48.518;9.206;2023-05-19T07:09:19;97596.13;;;13.54;60.02
32251;BME280;41295;48.518;9.206;2023-05-19T07:11:23;97592.00;;;13.49;60.27
32251;BME280;41295;48.518;9.206;2023-05-19T07:13:26;97588.34;;;13.53;60.38
32251;BME280;41295;48.518;9.206;2023-05-19T07:15:29;97586.06;;;13.45;60.03
32251;BME280;41295;48.518;9.206;2023-05-19T07:17:31;97595.59;;;13.46;60.30
32251;BME280;41295;48.518;9.206;2023-05-19T07:19:34;97592.91;;;13.47;60.27
32251;BME280;41295;48.518;9.206;2023-05-19T07:21:36;97591.06;;;13.50;60.24
32251;BME280;41295;48.518;9.206;2023-05-19T07:23:39;97588.34;;;13.53;60.34
32251;BME280;41295;48.518;9.206;2023-05-19T07:25:42;97585.84;;;13.50;59.31
32251;BME280;41295;48.518;9.206;2023-05-19T07:27:46;97583.03;;;13.54;59.66
32251;BME280;41295;48.518;9.206;2023-05-19T07:29:48;97588.78;;;13.42;60.27
32251;BME280;41295;48.518;9.206;2023-05-19T07:31:51;97588.59;;;13.46;59.80
32251;BME280;41295;48.518;9.206;2023-05-19T07:33:58;97588.38;;;13.51;59.87
32251;BME280;41295;48.518;9.206;2023-05-19T07:36:01;97581.28;;;13.55;60.09
32251;BME280;41295;48.518;9.206;2023-05-19T07:38:03;97584.81;;;13.54;59.84
32251;BME280;41295;48.518;9.206;2023-05-19T07:40:08;97585.47;;;13.59;60.06
32251;BME280;41295;48.518;9.206;2023-05-19T07:42:10;97586.25;;;13.61;59.83
32251;BME280;41295;48.518;9.206;2023-05-19T07:44:14;97576.50;;;13.65;60.05
32251;BME280;41295;48.518;9.206;2023-05-19T07:46:17;97578.97;;;13.68;60.12
32251;BME280;41295;48.518;9.206;2023-05-19T07:48:20;97591.06;;;13.70;60.15
32251;BME280;41295;48.518;9.206;2023-05-19T07:50:23;97588.81;;;13.63;58.63
32251;BME280;41295;48.518;9.206;2023-05-19T07:52:26;97581.59;;;13.68;59.42
32251;BME280;41295;48.518;9.206;2023-05-19T07:54:28;97593.69;;;13.70;59.96
32251;BME280;41295;48.518;9.206;2023-05-19T07:56:31;97590.94;;;13.74;59.83
32251;BME280;41295;48.518;9.206;2023-05-19T07:58:34;97582.16;;;13.75;59.84
32251;BME280;41295;48.518;9.206;2023-05-19T08:00:38;97587.25;;;13.78;59.99
32251;BME280;41295;48.518;9.206;2023-05-19T08:02:41;97594.97;;;13.81;59.78
32251;BME280;41295;48.518;9.206;2023-05-19T08:04:44;97588.94;;;13.79;59.82
32251;BME280;41295;48.518;9.206;2023-05-19T08:06:47;97581.88;;;13.81;60.27
32251;BME280;41295;48.518;9.206;2023-05-19T08:08:49;97581.91;;;13.79;60.54
32251;BME280;41295;48.518;9.206;2023-05-19T08:10:52;97580.00;;;13.83;60.42
32251;BME280;41295;48.518;9.206;2023-05-19T08:12:55;97576.50;;;13.84;60.24
32251;BME280;41295;48.518;9.206;2023-05-19T08:14:57;97581.66;;;13.86;59.88
32251;BME280;41295;48.518;9.206;2023-05-19T08:17:03;97585.06;;;13.88;59.72
32251;BME280;41295;48.518;9.206;2023-05-19T08:19:06;97578.19;;;13.85;59.67
32251;BME280;41295;48.518;9.206;2023-05-19T08:21:09;97578.25;;;13.83;59.55
32251;BME280;41295;48.518;9.206;2023-05-19T08:23:12;97577.28;;;13.86;59.56
32251;BME280;41295;48.518;9.206;2023-05-19T08:25:14;97572.03;;;13.86;59.72
32251;BME280;41295;48.518;9.206;2023-05-19T08:27:17;97572.16;;;13.83;60.30
32251;BME280;41295;48.518;9.206;2023-05-19T08:29:20;97566.78;;;13.86;59.99
32251;BME280;41295;48.518;9.206;2023-05-19T08:31:22;97565.84;;;13.87;59.72
32251;BME280;41295;48.518;9.206;2023-05-19T08:33:26;97562.31;;;13.88;59.64
32251;BME280;41295;48.518;9.206;2023-05-19T08:35:29;97565.78;;;13.89;59.78
32251;BME280;41295;48.518;9.206;2023-05-19T08:37:32;97560.63;;;13.87;59.43
32251;BME280;41295;48.518;9.206;2023-05-19T08:39:37;97563.16;;;13.89;59.31
32251;BME280;41295;48.518;9.206;2023-05-19T08:41:40;97565.00;;;13.87;59.19
32251;BME280;41295;48.518;9.206;2023-05-19T08:43:42;97559.75;;;13.87;59.33
32251;BME280;41295;48.518;9.206;2023-05-19T08:45:45;97564.09;;;13.88;59.33
32251;BME280;41295;48.518;9.206;2023-05-19T08:47:49;97569.25;;;13.89;59.29
32251;BME280;41295;48.518;9.206;2023-05-19T08:49:58;97570.22;;;13.87;59.53
32251;BME280;41295;48.518;9.206;2023-05-19T08:52:08;97565.78;;;13.89;59.41
32251;BME280;41295;48.518;9.206;2023-05-19T08:54:14;97567.50;;;13.90;59.54
32251;BME280;41295;48.518;9.206;2023-05-19T08:56:20;97559.56;;;13.91;59.63
32251;BME280;41295;48.518;9.206;2023-05-19T08:58:23;97566.47;;;13.92;59.46
32251;BME280;41295;48.518;9.206;2023-05-19T09:00:29;97561.31;;;13.91;59.83
32251;BME280;41295;48.518;9.206;2023-05-19T09:02:33;97560.34;;;13.93;59.65
32251;BME280;41295;48.518;9.206;2023-05-19T09:04:36;97561.16;;;13.94;59.57
32251;BME280;41295;48.518;9.206;2023-05-19T09:06:41;97561.25;;;13.92;59.23
32251;BME280;41295;48.518;9.206;2023-05-19T09:08:45;97557.13;;;13.87;58.37
32251;BME280;41295;48.518;9.206;2023-05-19T09:10:48;97559.81;;;13.85;58.77
32251;BME280;41295;48.518;9.206;2023-05-19T09:12:52;97554.47;;;13.88;59.30
32251;BME280;41295;48.518;9.206;2023-05-19T09:14:54;97559.63;;;13.90;59.41
32251;BME280;41295;48.518;9.206;2023-05-19T09:16:58;97556.94;;;13.91;59.25
32251;BME280;41295;48.518;9.206;2023-05-19T09:19:01;97553.38;;;13.92;59.44
32251;BME280;41295;48.518;9.206;2023-05-19T09:21:04;97560.19;;;13.97;59.67
32251;BME280;41295;48.518;9.206;2023-05-19T09:23:12;97553.81;;;14.02;59.69
32251;BME280;41295;48.518;9.206;2023-05-19T09:25:17;97549.56;;;14.00;59.28
32251;BME280;41295;48.518;9.206;2023-05-19T09:27:20;97549.31;;;14.04;59.43
32251;BME280;41295;48.518;9.206;2023-05-19T09:29:24;97557.19;;;14.04;59.30
32251;BME280;41295;48.518;9.206;2023-05-19T09:31:31;97550.09;;;14.06;59.65
32251;BME280;41295;48.518;9.206;2023-05-19T09:33:35;97558.75;;;14.09;59.74
32251;BME280;41295;48.518;9.206;2023-05-19T09:35:38;97550.03;;;14.08;59.46
32251;BME280;41295;48.518;9.206;2023-05-19T09:37:41;97556.34;;;14.04;59.02
32251;BME280;41295;48.518;9.206;2023-05-19T09:39:45;97556.34;;;14.04;59.39
32251;BME280;41295;48.518;9.206;2023-05-19T09:41:53;97557.25;;;14.03;58.83
32251;BME280;41295;48.518;9.206;2023-05-19T09:43:55;97553.81;;;14.02;58.60
32251;BME280;41295;48.518;9.206;2023-05-19T09:45:58;97553.81;;;14.02;58.84
32251;BME280;41295;48.518;9.206;2023-05-19T09:48:02;97547.88;;;13.99;58.82
32251;BME280;41295;48.518;9.206;2023-05-19T09:50:09;97543.59;;;13.96;58.90
32251;BME280;41295;48.518;9.206;2023-05-19T09:52:14;97549.91;;;13.92;58.97
32251;BME280;41295;48.518;9.206;2023-05-19T09:54:19;97544.63;;;13.93;59.09
32251;BME280;41295;48.518;9.206;2023-05-19T09:56:23;97544.63;;;13.93;58.84
32251;BME280;41295;48.518;9.206;2023-05-19T09:58:25;97540.28;;;13.92;58.81
32251;BME280;41295;48.518;9.206;2023-05-19T10:00:32;97550.06;;;13.89;58.50
32251;BME280;41295;48.518;9.206;2023-05-19T10:02:36;97549.22;;;13.88;58.98
32251;BME280;41295;48.518;9.206;2023-05-19T10:04:40;97542.97;;;13.91;59.24
32251;BME280;41295;48.518;9.206;2023-05-19T10:06:43;97543.03;;;13.89;59.46
32251;BME280;41295;48.518;9.206;2023-05-19T10:08:48;97556.06;;;13.91;59.18
32251;BME280;41295;48.518;9.206;2023-05-19T10:10:51;97556.16;;;13.89;59.23
32251;BME280;41295;48.518;9.206;2023-05-19T10:12:55;97554.31;;;13.91;59.18
32251;BME280;41295;48.518;9.206;2023-05-19T10:15:00;97560.34;;;13.93;59.30
32251;BME280;41295;48.518;9.206;2023-05-19T10:17:03;97554.09;;;13.96;59.28
32251;BME280;41295;48.518;9.206;2023-05-19T10:19:06;97552.31;;;13.97;59.20
32251;BME280;41295;48.518;9.206;2023-05-19T10:21:11;97552.31;;;13.97;59.25
32251;BME280;41295;48.518;9.206;2023-05-19T10:23:14;97550.47;;;13.99;59.08
32251;BME280;41295;48.518;9.206;2023-05-19T10:25:17;97552.25;;;13.98;59.08
32251;BME280;41295;48.518;9.206;2023-05-19T10:27:21;97555.81;;;13.97;58.91
32251;BME280;41295;48.518;9.206;2023-05-19T10:29:28;97549.00;;;13.93;58.98
32251;BME280;41295;48.518;9.206;2023-05-19T10:31:33;97545.44;;;13.94;59.34
32251;BME280;41295;48.518;9.206;2023-05-19T10:33:45;97550.59;;;13.95;59.67
32251;BME280;41295;48.518;9.206;2023-05-19T10:36:04;97542.19;;;13.89;59.00
32251;BME280;41295;48.518;9.206;2023-05-19T10:38:21;97542.81;;;13.94;59.23
32251;BME280;41295;48.518;9.206;2023-05-19T10:40:32;97543.69;;;13.94;59.32
32251;BME280;41295;48.518;9.206;2023-05-19T10:42:39;97548.75;;;13.98;59.60
32251;BME280;41295;48.518;9.206;2023-05-19T10:44:53;97546.94;;;14.00;60.16
32251;BME280;41295;48.518;9.206;2023-05-19T10:46:59;97547.88;;;13.99;59.43
32251;BME280;41295;48.518;9.206;2023-05-19T10:49:02;97546.84;;;14.01;59.22
32251;BME280;41295;48.518;9.206;2023-05-19T10:51:05;97552.81;;;14.05;59.05
32251;BME280;41295;48.518;9.206;2023-05-19T10:53:16;97543.94;;;14.07;59.01
32251;BME280;41295;48.518;9.206;2023-05-19T10:55:44;97545.88;;;14.04;58.77
32251;BME280;41295;48.518;9.206;2023-05-19T10:57:54;97551.03;;;14.05;58.51
32251;BME280;41295;48.518;9.206;2023-05-19T11:00:02;97550.03;;;14.08;58.59
32251;BME280;41295;48.518;9.206;2023-05-19T11:02:36;97543.94;;;14.07;58.52
32251;BME280;41295;48.518;9.206;2023-05-19T11:04:44;97553.44;;;14.10;58.62
32251;BME280;41295;48.518;9.206;2023-05-19T11:06:51;97552.44;;;14.13;58.72
32251;BME280;41295;48.518;9.206;2023-05-19T11:08:56;97548.03;;;14.13;58.89